PWSweather.com
Personal Weather Stations
Station Observations

ChardChardGB

Lat: 50.877408, Lon: -2.94964741

Elevation: 341

Station Type: WS3083

http://www.merriott-astro.co.uk/weather/index.htm

High Low Average
Temperature 78.3°F25.7°C 59.9°F15.5°C 69.0°F20.6°C
Dew Point 63.3°F17.4°C 55.7°F13.2°C 59.7°F15.4°C
Winds 10.7 mph 17.2 kmh Calm Calm 5.0 mph WSW8.0 kmh WSW
Wind Gusts 15.9 mph25.6 kmh -- 7.0 mph11.3 kmh
Humidity 87% 57% 73%
Pressure 29.95 in1014.2 mb 29.91 in1012.9 mb -
Precipitation 0.00 in0.0 mm - -
Hour Temp Dew Point Humidity Winds Wind Gusts Pressure Precip Precip Rate Daily Precip Total
12:00 AM 63.9°F17.7°C 59.6°F15.3°C 86% 1.6 mph S2.6 kmh S 3.8 mph6.1 kmh 29.91 in1012.9 mb 0.00 in0.0 mm 0.00 in0.0 mm 0.00 in0.0 mm
12:10 AM 64.0°F17.8°C 59.8°F15.4°C 86% 3.5 mph S5.6 kmh S 6.9 mph11.1 kmh 29.91 in1012.9 mb 0.00 in0.0 mm 0.00 in0.0 mm 0.00 in0.0 mm
12:20 AM 64.0°F17.8°C 59.5°F15.3°C 85% 4.4 mph W7.1 kmh W 6.9 mph11.1 kmh 29.92 in1013.2 mb 0.00 in0.0 mm 0.00 in0.0 mm 0.00 in0.0 mm
12:30 AM 63.9°F17.7°C 59.0°F15.0°C 84% 5.8 mph W9.3 kmh W 8.3 mph13.4 kmh 29.92 in1013.2 mb 0.00 in0.0 mm 0.00 in0.0 mm 0.00 in0.0 mm
12:40 AM 63.5°F17.5°C 58.6°F14.8°C 84% 4.3 mph WNW6.9 kmh WNW 7.6 mph12.2 kmh 29.92 in1013.2 mb 0.00 in0.0 mm 0.00 in0.0 mm 0.00 in0.0 mm
12:50 AM 63.5°F17.5°C 58.6°F14.8°C 84% 3.3 mph W5.3 kmh W 3.8 mph6.1 kmh 29.92 in1013.2 mb 0.00 in0.0 mm 0.00 in0.0 mm 0.00 in0.0 mm
01:00 AM 63.5°F17.5°C 58.6°F14.8°C 84% 4.1 mph W6.6 kmh W 5.4 mph8.7 kmh 29.91 in1012.9 mb 0.00 in0.0 mm 0.00 in0.0 mm 0.00 in0.0 mm
01:10 AM 63.3°F17.4°C 59.4°F15.2°C 87% 3.0 mph WNW4.8 kmh WNW 3.8 mph6.1 kmh 29.91 in1012.9 mb 0.00 in0.0 mm 0.00 in0.0 mm 0.00 in0.0 mm
01:20 AM 63.1°F17.3°C 58.9°F14.9°C 86% 3.5 mph W5.6 kmh W 8.3 mph13.4 kmh 29.91 in1012.9 mb 0.00 in0.0 mm 0.00 in0.0 mm 0.00 in0.0 mm
01:30 AM 63.1°F17.3°C 59.2°F15.1°C 87% 3.2 mph WSW5.1 kmh WSW 5.4 mph8.7 kmh 29.91 in1012.9 mb 0.00 in0.0 mm 0.00 in0.0 mm 0.00 in0.0 mm
01:40 AM 63.3°F17.4°C 59.4°F15.2°C 87% 3.5 mph WSW5.6 kmh WSW 4.5 mph7.2 kmh 29.92 in1013.2 mb 0.00 in0.0 mm 0.00 in0.0 mm 0.00 in0.0 mm
01:50 AM 63.5°F17.5°C 58.6°F14.8°C 84% 4.1 mph WSW6.6 kmh WSW 5.4 mph8.7 kmh 29.91 in1012.9 mb 0.00 in0.0 mm 0.00 in0.0 mm 0.00 in0.0 mm
02:00 AM 63.5°F17.5°C 58.3°F14.6°C 83% 4.6 mph SW7.4 kmh SW 7.6 mph12.2 kmh 29.91 in1012.9 mb 0.00 in0.0 mm 0.00 in0.0 mm 0.00 in0.0 mm
02:10 AM 63.7°F17.6°C 58.4°F14.7°C 83% 3.1 mph SW5.0 kmh SW 5.4 mph8.7 kmh 29.91 in1012.9 mb 0.00 in0.0 mm 0.00 in0.0 mm 0.00 in0.0 mm
02:20 AM 63.7°F17.6°C 58.4°F14.7°C 83% 3.5 mph WSW5.6 kmh WSW 4.5 mph7.2 kmh 29.91 in1012.9 mb 0.00 in0.0 mm 0.00 in0.0 mm 0.00 in0.0 mm
02:30 AM 63.7°F17.6°C 58.4°F14.7°C 83% 3.3 mph W5.3 kmh W 6.0 mph9.7 kmh 29.91 in1012.9 mb 0.00 in0.0 mm 0.00 in0.0 mm 0.00 in0.0 mm
02:40 AM 63.7°F17.6°C 58.4°F14.7°C 83% 3.7 mph SSE6.0 kmh SSE 5.4 mph8.7 kmh 29.91 in1012.9 mb 0.00 in0.0 mm 0.00 in0.0 mm 0.00 in0.0 mm
02:50 AM 63.9°F17.7°C 58.6°F14.8°C 83% 4.4 mph SW7.1 kmh SW 7.6 mph12.2 kmh 29.92 in1013.2 mb 0.00 in0.0 mm 0.00 in0.0 mm 0.00 in0.0 mm
03:00 AM 63.9°F17.7°C 58.6°F14.8°C 83% 4.7 mph SSE7.6 kmh SSE 6.0 mph9.7 kmh 29.91 in1012.9 mb 0.00 in0.0 mm 0.00 in0.0 mm 0.00 in0.0 mm
03:10 AM 63.7°F17.6°C 58.8°F14.9°C 84% 4.4 mph SW7.1 kmh SW 8.3 mph13.4 kmh 29.91 in1012.9 mb 0.00 in0.0 mm 0.00 in0.0 mm 0.00 in0.0 mm
03:20 AM 63.7°F17.6°C 58.8°F14.9°C 84% 3.8 mph SW6.1 kmh SW 5.4 mph8.7 kmh 29.91 in1012.9 mb 0.00 in0.0 mm 0.00 in0.0 mm 0.00 in0.0 mm
03:30 AM 63.7°F17.6°C 58.8°F14.9°C 84% 4.0 mph W6.4 kmh W 6.0 mph9.7 kmh 29.91 in1012.9 mb 0.00 in0.0 mm 0.00 in0.0 mm 0.00 in0.0 mm
03:40 AM 63.7°F17.6°C 58.8°F14.9°C 84% 3.8 mph W6.1 kmh W 6.0 mph9.7 kmh 29.91 in1012.9 mb 0.00 in0.0 mm 0.00 in0.0 mm 0.00 in0.0 mm
03:50 AM 63.7°F17.6°C 58.8°F14.9°C 84% 4.0 mph WNW6.4 kmh WNW 5.4 mph8.7 kmh 29.91 in1012.9 mb 0.00 in0.0 mm 0.00 in0.0 mm 0.00 in0.0 mm
04:00 AM 63.7°F17.6°C 58.8°F14.9°C 84% 3.3 mph W5.3 kmh W 5.4 mph8.7 kmh 29.91 in1012.9 mb 0.00 in0.0 mm 0.00 in0.0 mm 0.00 in0.0 mm
04:10 AM 63.7°F17.6°C 58.8°F14.9°C 84% 2.9 mph SW4.7 kmh SW 3.8 mph6.1 kmh 29.91 in1012.9 mb 0.00 in0.0 mm 0.00 in0.0 mm 0.00 in0.0 mm
04:20 AM 63.7°F17.6°C 58.8°F14.9°C 84% 3.0 mph W4.8 kmh W 3.8 mph6.1 kmh 29.92 in1013.2 mb 0.00 in0.0 mm 0.00 in0.0 mm 0.00 in0.0 mm
04:30 AM 63.7°F17.6°C 58.8°F14.9°C 84% 2.4 mph WSW3.9 kmh WSW 4.5 mph7.2 kmh 29.91 in1012.9 mb 0.00 in0.0 mm 0.00 in0.0 mm 0.00 in0.0 mm
04:40 AM 63.9°F17.7°C 59.0°F15.0°C 84% 2.7 mph WSW4.3 kmh WSW 4.5 mph7.2 kmh 29.92 in1013.2 mb 0.00 in0.0 mm 0.00 in0.0 mm 0.00 in0.0 mm
04:50 AM 63.9°F17.7°C 59.0°F15.0°C 84% 2.7 mph W4.3 kmh W 3.8 mph6.1 kmh 29.91 in1012.9 mb 0.00 in0.0 mm 0.00 in0.0 mm 0.00 in0.0 mm
05:00 AM 64.0°F17.8°C 59.1°F15.1°C 84% 2.6 mph WSW4.2 kmh WSW 3.8 mph6.1 kmh 29.92 in1013.2 mb 0.00 in0.0 mm 0.00 in0.0 mm 0.00 in0.0 mm
05:10 AM 64.2°F17.9°C 59.0°F15.0°C 83% 2.0 mph W3.2 kmh W 3.1 mph5.0 kmh 29.92 in1013.2 mb 0.00 in0.0 mm 0.00 in0.0 mm 0.00 in0.0 mm
05:20 AM 64.2°F17.9°C 59.0°F15.0°C 83% 1.1 mph W1.8 kmh W 3.1 mph5.0 kmh 29.92 in1013.2 mb 0.00 in0.0 mm 0.00 in0.0 mm 0.00 in0.0 mm
05:30 AM 64.4°F18.0°C 58.8°F14.9°C 82% 1.9 mph SW3.1 kmh SW 3.1 mph5.0 kmh 29.92 in1013.2 mb 0.00 in0.0 mm 0.00 in0.0 mm 0.00 in0.0 mm
05:40 AM 64.6°F18.1°C 59.0°F15.0°C 82% 1.7 mph SW2.7 kmh SW 3.1 mph5.0 kmh 29.93 in1013.5 mb 0.00 in0.0 mm 0.00 in0.0 mm 0.00 in0.0 mm
05:50 AM 64.6°F18.1°C 59.0°F15.0°C 82% 2.6 mph SW4.2 kmh SW 5.4 mph8.7 kmh 29.93 in1013.5 mb 0.00 in0.0 mm 0.00 in0.0 mm 0.00 in0.0 mm
06:00 AM 64.8°F18.2°C 58.8°F14.9°C 81% 2.8 mph WNW4.5 kmh WNW 4.5 mph7.2 kmh 29.93 in1013.5 mb 0.00 in0.0 mm 0.00 in0.0 mm 0.00 in0.0 mm
06:10 AM 64.9°F18.3°C 59.0°F15.0°C 81% 2.3 mph WSW3.7 kmh WSW 3.8 mph6.1 kmh 29.93 in1013.5 mb 0.00 in0.0 mm 0.00 in0.0 mm 0.00 in0.0 mm
06:20 AM 65.1°F18.4°C 58.8°F14.9°C 80% 3.4 mph SW5.5 kmh SW 5.4 mph8.7 kmh 29.93 in1013.5 mb 0.00 in0.0 mm 0.00 in0.0 mm 0.00 in0.0 mm
06:30 AM 66.0°F18.9°C 59.7°F15.4°C 80% 1.9 mph SW3.1 kmh SW 3.8 mph6.1 kmh 29.93 in1013.5 mb 0.00 in0.0 mm 0.00 in0.0 mm 0.00 in0.0 mm
06:40 AM 66.7°F19.3°C 59.7°F15.4°C 78% 2.2 mph S3.5 kmh S 4.5 mph7.2 kmh 29.93 in1013.5 mb 0.00 in0.0 mm 0.00 in0.0 mm 0.00 in0.0 mm
06:50 AM 67.1°F19.5°C 59.3°F15.2°C 76% 2.2 mph SW3.5 kmh SW 4.5 mph7.2 kmh 29.94 in1013.9 mb 0.00 in0.0 mm 0.00 in0.0 mm 0.00 in0.0 mm
07:00 AM 67.1°F19.5°C 59.3°F15.2°C 76% 2.4 mph SSW3.9 kmh SSW 4.5 mph7.2 kmh 29.94 in1013.9 mb 0.00 in0.0 mm 0.00 in0.0 mm 0.00 in0.0 mm
07:10 AM 67.8°F19.9°C 59.6°F15.3°C 75% 2.9 mph S4.7 kmh S 3.8 mph6.1 kmh 29.94 in1013.9 mb 0.00 in0.0 mm 0.00 in0.0 mm 0.00 in0.0 mm
07:20 AM 68.4°F20.2°C 59.8°F15.4°C 74% 4.1 mph WSW6.6 kmh WSW 5.4 mph8.7 kmh 29.94 in1013.9 mb 0.00 in0.0 mm 0.00 in0.0 mm 0.00 in0.0 mm
07:30 AM 69.4°F20.8°C 60.4°F15.8°C 73% 3.7 mph W6.0 kmh W 4.5 mph7.2 kmh 29.94 in1013.9 mb 0.00 in0.0 mm 0.00 in0.0 mm 0.00 in0.0 mm
07:40 AM 71.1°F21.7°C 61.2°F16.2°C 71% 5.1 mph SW8.2 kmh SW 7.6 mph12.2 kmh 29.94 in1013.9 mb 0.00 in0.0 mm 0.00 in0.0 mm 0.00 in0.0 mm
07:50 AM 72.9°F22.7°C 59.6°F15.3°C 63% 4.6 mph W7.4 kmh W 9.2 mph14.8 kmh 29.95 in1014.2 mb 0.00 in0.0 mm 0.00 in0.0 mm 0.00 in0.0 mm
08:00 AM 71.6°F22.0°C 60.9°F16.1°C 69% 5.8 mph WSW9.3 kmh WSW 9.2 mph14.8 kmh 29.94 in1013.9 mb 0.00 in0.0 mm 0.00 in0.0 mm 0.00 in0.0 mm
08:10 AM 71.6°F22.0°C 60.9°F16.1°C 69% 4.4 mph WSW7.1 kmh WSW 6.9 mph11.1 kmh 29.94 in1013.9 mb 0.00 in0.0 mm 0.00 in0.0 mm 0.00 in0.0 mm
08:20 AM 71.1°F21.7°C 60.8°F16.0°C 70% 4.9 mph SW7.9 kmh SW 6.9 mph11.1 kmh 29.94 in1013.9 mb 0.00 in0.0 mm 0.00 in0.0 mm 0.00 in0.0 mm
08:30 AM 70.9°F21.6°C 60.6°F15.9°C 70% 5.4 mph W8.7 kmh W 6.9 mph11.1 kmh 29.93 in1013.5 mb 0.00 in0.0 mm 0.00 in0.0 mm 0.00 in0.0 mm
08:40 AM 70.9°F21.6°C 60.6°F15.9°C 70% 5.0 mph W8.0 kmh W 6.9 mph11.1 kmh 29.94 in1013.9 mb 0.00 in0.0 mm 0.00 in0.0 mm 0.00 in0.0 mm
08:50 AM 70.7°F21.5°C 60.5°F15.8°C 70% 5.8 mph SW9.3 kmh SW 9.8 mph15.8 kmh 29.93 in1013.5 mb 0.00 in0.0 mm 0.00 in0.0 mm 0.00 in0.0 mm
09:00 AM 71.1°F21.7°C 60.8°F16.0°C 70% 4.7 mph WNW7.6 kmh WNW 6.9 mph11.1 kmh 29.94 in1013.9 mb 0.00 in0.0 mm 0.00 in0.0 mm 0.00 in0.0 mm
09:10 AM 72.1°F22.3°C 61.8°F16.6°C 70% 5.7 mph WSW9.2 kmh WSW 8.3 mph13.4 kmh 29.94 in1013.9 mb 0.00 in0.0 mm 0.00 in0.0 mm 0.00 in0.0 mm
09:20 AM 74.8°F23.8°C 62.3°F16.8°C 65% 5.4 mph SW8.7 kmh SW 7.6 mph12.2 kmh 29.94 in1013.9 mb 0.00 in0.0 mm 0.00 in0.0 mm 0.00 in0.0 mm
09:30 AM 76.1°F24.5°C 62.2°F16.8°C 62% 5.0 mph W8.0 kmh W 7.6 mph12.2 kmh 29.94 in1013.9 mb 0.00 in0.0 mm 0.00 in0.0 mm 0.00 in0.0 mm
09:40 AM 74.7°F23.7°C 60.8°F16.0°C 62% 6.1 mph SW9.8 kmh SW 9.2 mph14.8 kmh 29.94 in1013.9 mb 0.00 in0.0 mm 0.00 in0.0 mm 0.00 in0.0 mm
09:50 AM 74.5°F23.6°C 60.6°F15.9°C 62% 5.9 mph W9.5 kmh W 9.2 mph14.8 kmh 29.94 in1013.9 mb 0.00 in0.0 mm 0.00 in0.0 mm 0.00 in0.0 mm
10:00 AM 72.9°F22.7°C 60.0°F15.6°C 64% 7.4 mph W11.9 kmh W 9.2 mph14.8 kmh 29.93 in1013.5 mb 0.00 in0.0 mm 0.00 in0.0 mm 0.00 in0.0 mm
10:10 AM 73.6°F23.1°C 60.2°F15.7°C 63% 5.9 mph W9.5 kmh W 7.6 mph12.2 kmh 29.94 in1013.9 mb 0.00 in0.0 mm 0.00 in0.0 mm 0.00 in0.0 mm
10:20 AM 75.0°F23.9°C 61.2°F16.2°C 62% 6.5 mph WSW10.5 kmh WSW 9.8 mph15.8 kmh 29.94 in1013.9 mb 0.00 in0.0 mm 0.00 in0.0 mm 0.00 in0.0 mm
10:30 AM 74.5°F23.6°C 61.5°F16.4°C 64% 6.3 mph WSW10.1 kmh WSW 9.8 mph15.8 kmh 29.93 in1013.5 mb 0.00 in0.0 mm 0.00 in0.0 mm 0.00 in0.0 mm
10:40 AM 76.1°F24.5°C 61.7°F16.5°C 61% 6.7 mph W10.8 kmh W 9.2 mph14.8 kmh 29.93 in1013.5 mb 0.00 in0.0 mm 0.00 in0.0 mm 0.00 in0.0 mm
10:50 AM 75.4°F24.1°C 61.0°F16.1°C 61% 6.9 mph NW11.1 kmh NW 9.8 mph15.8 kmh 29.94 in1013.9 mb 0.00 in0.0 mm 0.00 in0.0 mm 0.00 in0.0 mm
11:00 AM 74.3°F23.5°C 60.9°F16.1°C 63% 7.7 mph W12.4 kmh W 9.8 mph15.8 kmh 29.94 in1013.9 mb 0.00 in0.0 mm 0.00 in0.0 mm 0.00 in0.0 mm
11:10 AM 75.0°F23.9°C 61.6°F16.4°C 63% 7.5 mph W12.1 kmh W 11.4 mph18.3 kmh 29.94 in1013.9 mb 0.00 in0.0 mm 0.00 in0.0 mm 0.00 in0.0 mm
11:20 AM 73.8°F23.2°C 60.4°F15.8°C 63% 7.2 mph W11.6 kmh W 9.2 mph14.8 kmh 29.94 in1013.9 mb 0.00 in0.0 mm 0.00 in0.0 mm 0.00 in0.0 mm
11:30 AM 73.8°F23.2°C 60.9°F16.1°C 64% 6.0 mph WSW9.7 kmh WSW 9.2 mph14.8 kmh 29.94 in1013.9 mb 0.00 in0.0 mm 0.00 in0.0 mm 0.00 in0.0 mm
11:40 AM 73.4°F23.0°C 60.5°F15.8°C 64% 6.4 mph NW10.3 kmh NW 9.2 mph14.8 kmh 29.93 in1013.5 mb 0.00 in0.0 mm 0.00 in0.0 mm 0.00 in0.0 mm
11:50 AM 72.9°F22.7°C 60.0°F15.6°C 64% 6.3 mph WSW10.1 kmh WSW 8.3 mph13.4 kmh 29.93 in1013.5 mb 0.00 in0.0 mm 0.00 in0.0 mm 0.00 in0.0 mm
12:00 PM 72.5°F22.5°C 60.1°F15.6°C 65% 7.0 mph NW11.3 kmh NW 9.2 mph14.8 kmh 29.93 in1013.5 mb 0.00 in0.0 mm 0.00 in0.0 mm 0.00 in0.0 mm
12:10 PM 73.2°F22.9°C 60.8°F16.0°C 65% 4.8 mph WNW7.7 kmh WNW 6.0 mph9.7 kmh 29.93 in1013.5 mb 0.00 in0.0 mm 0.00 in0.0 mm 0.00 in0.0 mm
12:20 PM 73.6°F23.1°C 60.7°F15.9°C 64% 6.6 mph WSW10.6 kmh WSW 9.8 mph15.8 kmh 29.94 in1013.9 mb 0.00 in0.0 mm 0.00 in0.0 mm 0.00 in0.0 mm
12:30 PM 73.6°F23.1°C 60.7°F15.9°C 64% 6.2 mph SW10.0 kmh SW 8.3 mph13.4 kmh 29.94 in1013.9 mb 0.00 in0.0 mm 0.00 in0.0 mm 0.00 in0.0 mm
12:40 PM 74.1°F23.4°C 61.2°F16.2°C 64% 6.1 mph W9.8 kmh W 9.2 mph14.8 kmh 29.94 in1013.9 mb 0.00 in0.0 mm 0.00 in0.0 mm 0.00 in0.0 mm
12:50 PM 74.1°F23.4°C 61.6°F16.4°C 65% 6.4 mph W10.3 kmh W 8.3 mph13.4 kmh 29.93 in1013.5 mb 0.00 in0.0 mm 0.00 in0.0 mm 0.00 in0.0 mm
01:00 PM 75.2°F24.0°C 61.3°F16.3°C 62% 6.5 mph W10.5 kmh W 8.3 mph13.4 kmh 29.94 in1013.9 mb 0.00 in0.0 mm 0.00 in0.0 mm 0.00 in0.0 mm
01:10 PM 74.3°F23.5°C 60.9°F16.1°C 63% 6.8 mph WNW10.9 kmh WNW 8.3 mph13.4 kmh 29.94 in1013.9 mb 0.00 in0.0 mm 0.00 in0.0 mm 0.00 in0.0 mm
01:20 PM 73.9°F23.3°C 61.0°F16.1°C 64% 9.5 mph W15.3 kmh W 11.4 mph18.3 kmh 29.94 in1013.9 mb 0.00 in0.0 mm 0.00 in0.0 mm 0.00 in0.0 mm
01:30 PM 75.6°F24.2°C 61.7°F16.5°C 62% 6.2 mph WSW10.0 kmh WSW 10.7 mph17.2 kmh 29.94 in1013.9 mb 0.00 in0.0 mm 0.00 in0.0 mm 0.00 in0.0 mm
01:40 PM 75.4°F24.1°C 61.9°F16.6°C 63% 7.5 mph WNW12.1 kmh WNW 10.7 mph17.2 kmh 29.93 in1013.5 mb 0.00 in0.0 mm 0.00 in0.0 mm 0.00 in0.0 mm
01:50 PM 76.6°F24.8°C 62.7°F17.1°C 62% 5.4 mph WSW8.7 kmh WSW 8.3 mph13.4 kmh 29.94 in1013.9 mb 0.00 in0.0 mm 0.00 in0.0 mm 0.00 in0.0 mm
02:00 PM 77.2°F25.1°C 62.7°F17.1°C 61% 6.6 mph WSW10.6 kmh WSW 8.3 mph13.4 kmh 29.93 in1013.5 mb 0.00 in0.0 mm 0.00 in0.0 mm 0.00 in0.0 mm
02:10 PM 76.5°F24.7°C 62.1°F16.7°C 61% 7.6 mph WSW12.2 kmh WSW 10.7 mph17.2 kmh 29.94 in1013.9 mb 0.00 in0.0 mm 0.00 in0.0 mm 0.00 in0.0 mm
02:20 PM 76.6°F24.8°C 62.2°F16.8°C 61% 7.0 mph W11.3 kmh W 9.8 mph15.8 kmh 29.94 in1013.9 mb 0.00 in0.0 mm 0.00 in0.0 mm 0.00 in0.0 mm
02:30 PM 78.3°F25.7°C 63.3°F17.4°C 60% 5.7 mph WNW9.2 kmh WNW 6.9 mph11.1 kmh 29.93 in1013.5 mb 0.00 in0.0 mm 0.00 in0.0 mm 0.00 in0.0 mm
02:40 PM 78.1°F25.6°C 62.6°F17.0°C 59% 5.8 mph WSW9.3 kmh WSW 8.3 mph13.4 kmh 29.93 in1013.5 mb 0.00 in0.0 mm 0.00 in0.0 mm 0.00 in0.0 mm
02:50 PM 77.5°F25.3°C 62.6°F17.0°C 60% 7.2 mph WNW11.6 kmh WNW 9.8 mph15.8 kmh 29.93 in1013.5 mb 0.00 in0.0 mm 0.00 in0.0 mm 0.00 in0.0 mm
03:00 PM 77.7°F25.4°C 61.3°F16.3°C 57% 7.8 mph W12.6 kmh W 13.0 mph20.9 kmh 29.93 in1013.5 mb 0.00 in0.0 mm 0.00 in0.0 mm 0.00 in0.0 mm
03:10 PM 76.1°F24.5°C 61.7°F16.5°C 61% 7.6 mph WSW12.2 kmh WSW 11.4 mph18.3 kmh 29.93 in1013.5 mb 0.00 in0.0 mm 0.00 in0.0 mm 0.00 in0.0 mm
03:20 PM 75.2°F24.0°C 61.3°F16.3°C 62% 6.9 mph WNW11.1 kmh WNW 9.8 mph15.8 kmh 29.94 in1013.9 mb 0.00 in0.0 mm 0.00 in0.0 mm 0.00 in0.0 mm
03:30 PM 77.7°F25.4°C 63.2°F17.3°C 61% 8.2 mph WSW13.2 kmh WSW 9.8 mph15.8 kmh 29.93 in1013.5 mb 0.00 in0.0 mm 0.00 in0.0 mm 0.00 in0.0 mm
03:40 PM 75.6°F24.2°C 61.2°F16.2°C 61% 8.3 mph WNW13.4 kmh WNW 9.2 mph14.8 kmh 29.93 in1013.5 mb 0.00 in0.0 mm 0.00 in0.0 mm 0.00 in0.0 mm
03:50 PM 74.7°F23.7°C 61.3°F16.3°C 63% 6.9 mph NW11.1 kmh NW 8.3 mph13.4 kmh 29.93 in1013.5 mb 0.00 in0.0 mm 0.00 in0.0 mm 0.00 in0.0 mm
04:00 PM 74.5°F23.6°C 61.1°F16.2°C 63% 7.7 mph W12.4 kmh W 13.6 mph21.9 kmh 29.94 in1013.9 mb 0.00 in0.0 mm 0.00 in0.0 mm 0.00 in0.0 mm
04:10 PM 73.9°F23.3°C 60.6°F15.9°C 63% 7.4 mph WNW11.9 kmh WNW 9.8 mph15.8 kmh 29.93 in1013.5 mb 0.00 in0.0 mm 0.00 in0.0 mm 0.00 in0.0 mm
04:20 PM 73.2°F22.9°C 60.3°F15.7°C 64% 9.5 mph W15.3 kmh W 13.0 mph20.9 kmh 29.93 in1013.5 mb 0.00 in0.0 mm 0.00 in0.0 mm 0.00 in0.0 mm
04:30 PM 73.2°F22.9°C 60.8°F16.0°C 65% 9.8 mph W15.8 kmh W 13.0 mph20.9 kmh 29.93 in1013.5 mb 0.00 in0.0 mm 0.00 in0.0 mm 0.00 in0.0 mm
04:40 PM 74.5°F23.6°C 61.1°F16.2°C 63% 7.8 mph W12.6 kmh W 12.1 mph19.5 kmh 29.93 in1013.5 mb 0.00 in0.0 mm 0.00 in0.0 mm 0.00 in0.0 mm
04:50 PM 74.7°F23.7°C 60.8°F16.0°C 62% 9.3 mph W15.0 kmh W 11.4 mph18.3 kmh 29.93 in1013.5 mb 0.00 in0.0 mm 0.00 in0.0 mm 0.00 in0.0 mm
05:00 PM 74.3°F23.5°C 60.5°F15.8°C 62% 9.1 mph W14.6 kmh W 12.1 mph19.5 kmh 29.93 in1013.5 mb 0.00 in0.0 mm 0.00 in0.0 mm 0.00 in0.0 mm
05:10 PM 74.5°F23.6°C 60.6°F15.9°C 62% 10.7 mph W17.2 kmh W 13.6 mph21.9 kmh 29.93 in1013.5 mb 0.00 in0.0 mm 0.00 in0.0 mm 0.00 in0.0 mm
05:20 PM 73.6°F23.1°C 60.2°F15.7°C 63% 9.2 mph WNW14.8 kmh WNW 15.9 mph25.6 kmh 29.93 in1013.5 mb 0.00 in0.0 mm 0.00 in0.0 mm 0.00 in0.0 mm
05:30 PM 74.8°F23.8°C 61.0°F16.1°C 62% 7.9 mph WNW12.7 kmh WNW 9.8 mph15.8 kmh 29.92 in1013.2 mb 0.00 in0.0 mm 0.00 in0.0 mm 0.00 in0.0 mm
05:40 PM 74.1°F23.4°C 59.8°F15.4°C 61% 7.7 mph W12.4 kmh W 11.4 mph18.3 kmh 29.93 in1013.5 mb 0.00 in0.0 mm 0.00 in0.0 mm 0.00 in0.0 mm
05:50 PM 73.0°F22.8°C 59.3°F15.2°C 62% 7.7 mph WNW12.4 kmh WNW 9.2 mph14.8 kmh 29.92 in1013.2 mb 0.00 in0.0 mm 0.00 in0.0 mm 0.00 in0.0 mm
06:00 PM 72.5°F22.5°C 59.2°F15.1°C 63% 6.2 mph W10.0 kmh W 8.3 mph13.4 kmh 29.92 in1013.2 mb 0.00 in0.0 mm 0.00 in0.0 mm 0.00 in0.0 mm
06:10 PM 73.4°F23.0°C 59.6°F15.3°C 62% 7.0 mph W11.3 kmh W 10.7 mph17.2 kmh 29.92 in1013.2 mb 0.00 in0.0 mm 0.00 in0.0 mm 0.00 in0.0 mm
06:20 PM 73.9°F23.3°C 59.7°F15.4°C 61% 4.5 mph WNW7.2 kmh WNW 7.6 mph12.2 kmh 29.92 in1013.2 mb 0.00 in0.0 mm 0.00 in0.0 mm 0.00 in0.0 mm
06:30 PM 72.3°F22.4°C 60.8°F16.0°C 67% 4.3 mph WNW6.9 kmh WNW 6.9 mph11.1 kmh 29.92 in1013.2 mb 0.00 in0.0 mm 0.00 in0.0 mm 0.00 in0.0 mm
06:40 PM 71.2°F21.8°C 60.2°F15.7°C 68% 5.4 mph WNW8.7 kmh WNW 9.2 mph14.8 kmh 29.92 in1013.2 mb 0.00 in0.0 mm 0.00 in0.0 mm 0.00 in0.0 mm
06:50 PM 71.1°F21.7°C 60.4°F15.8°C 69% 4.5 mph NW7.2 kmh NW 9.2 mph14.8 kmh 29.92 in1013.2 mb 0.00 in0.0 mm 0.00 in0.0 mm 0.00 in0.0 mm
07:00 PM 70.3°F21.3°C 60.1°F15.6°C 70% 4.5 mph WNW7.2 kmh WNW 8.3 mph13.4 kmh 29.91 in1012.9 mb 0.00 in0.0 mm 0.00 in0.0 mm 0.00 in0.0 mm
07:10 PM 69.8°F21.0°C 60.0°F15.6°C 71% 3.8 mph W6.1 kmh W 5.4 mph8.7 kmh 29.92 in1013.2 mb 0.00 in0.0 mm 0.00 in0.0 mm 0.00 in0.0 mm
07:20 PM 69.3°F20.7°C 59.9°F15.5°C 72% 2.9 mph NW4.7 kmh NW 3.8 mph6.1 kmh 29.92 in1013.2 mb 0.00 in0.0 mm 0.00 in0.0 mm 0.00 in0.0 mm
07:30 PM 69.1°F20.6°C 59.7°F15.4°C 72% 2.6 mph NE4.2 kmh NE 5.4 mph8.7 kmh 29.92 in1013.2 mb 0.00 in0.0 mm 0.00 in0.0 mm 0.00 in0.0 mm
07:40 PM 68.9°F20.5°C 59.9°F15.5°C 73% 3.5 mph WNW5.6 kmh WNW 5.4 mph8.7 kmh 29.93 in1013.5 mb 0.00 in0.0 mm 0.00 in0.0 mm 0.00 in0.0 mm
07:50 PM 68.5°F20.3°C 59.2°F15.1°C 72% 3.0 mph NNW4.8 kmh NNW 3.8 mph6.1 kmh 29.93 in1013.5 mb 0.00 in0.0 mm 0.00 in0.0 mm 0.00 in0.0 mm
08:00 PM 68.2°F20.1°C 58.8°F14.9°C 72% 3.2 mph NW5.1 kmh NW 4.5 mph7.2 kmh 29.93 in1013.5 mb 0.00 in0.0 mm 0.00 in0.0 mm 0.00 in0.0 mm
08:10 PM 67.6°F19.8°C 58.3°F14.6°C 72% 5.1 mph NW8.2 kmh NW 6.9 mph11.1 kmh 29.93 in1013.5 mb 0.00 in0.0 mm 0.00 in0.0 mm 0.00 in0.0 mm
08:20 PM 67.3°F19.6°C 58.0°F14.4°C 72% 4.1 mph NW6.6 kmh NW 5.4 mph8.7 kmh 29.93 in1013.5 mb 0.00 in0.0 mm 0.00 in0.0 mm 0.00 in0.0 mm
08:30 PM 66.9°F19.4°C 57.6°F14.2°C 72% 3.5 mph WNW5.6 kmh WNW 5.4 mph8.7 kmh 29.93 in1013.5 mb 0.00 in0.0 mm 0.00 in0.0 mm 0.00 in0.0 mm
08:40 PM 66.6°F19.2°C 57.7°F14.3°C 73% 3.0 mph N4.8 kmh N 3.8 mph6.1 kmh 29.93 in1013.5 mb 0.00 in0.0 mm 0.00 in0.0 mm 0.00 in0.0 mm
08:50 PM 66.0°F18.9°C 57.5°F14.2°C 74% 2.6 mph W4.2 kmh W 3.8 mph6.1 kmh 29.93 in1013.5 mb 0.00 in0.0 mm 0.00 in0.0 mm 0.00 in0.0 mm
09:00 PM 65.3°F18.5°C 57.2°F14.0°C 75% 2.5 mph W4.0 kmh W 5.4 mph8.7 kmh 29.93 in1013.5 mb 0.00 in0.0 mm 0.00 in0.0 mm 0.00 in0.0 mm
09:10 PM 64.9°F18.3°C 57.2°F14.0°C 76% 2.4 mph W3.9 kmh W 4.5 mph7.2 kmh 29.93 in1013.5 mb 0.00 in0.0 mm 0.00 in0.0 mm 0.00 in0.0 mm
09:20 PM 64.4°F18.0°C 57.1°F13.9°C 77% 2.2 mph NW3.5 kmh NW 3.8 mph6.1 kmh 29.93 in1013.5 mb 0.00 in0.0 mm 0.00 in0.0 mm 0.00 in0.0 mm
09:30 PM 64.0°F17.8°C 57.1°F13.9°C 78% 1.8 mph N2.9 kmh N 2.2 mph3.5 kmh 29.93 in1013.5 mb 0.00 in0.0 mm 0.00 in0.0 mm 0.00 in0.0 mm
09:40 PM 63.5°F17.5°C 56.5°F13.6°C 78% 0.3 mph NE0.5 kmh NE 1.6 mph2.6 kmh 29.93 in1013.5 mb 0.00 in0.0 mm 0.00 in0.0 mm 0.00 in0.0 mm
09:50 PM 62.8°F17.1°C 57.2°F14.0°C 82% 0.1 mph NE0.2 kmh NE 0.7 mph1.1 kmh 29.93 in1013.5 mb 0.00 in0.0 mm 0.00 in0.0 mm 0.00 in0.0 mm
10:00 PM 62.4°F16.9°C 57.2°F14.0°C 83% Calm Calm -- 29.93 in1013.5 mb 0.00 in0.0 mm 0.00 in0.0 mm 0.00 in0.0 mm
10:10 PM 62.1°F16.7°C 57.2°F14.0°C 84% Calm Calm -- 29.93 in1013.5 mb 0.00 in0.0 mm 0.00 in0.0 mm 0.00 in0.0 mm
10:20 PM 61.9°F16.6°C 57.3°F14.1°C 85% 0.4 mph N0.6 kmh N 1.6 mph2.6 kmh 29.93 in1013.5 mb 0.00 in0.0 mm 0.00 in0.0 mm 0.00 in0.0 mm
10:30 PM 61.5°F16.4°C 57.3°F14.1°C 86% Calm Calm -- 29.93 in1013.5 mb 0.00 in0.0 mm 0.00 in0.0 mm 0.00 in0.0 mm
10:40 PM 61.2°F16.2°C 57.0°F13.9°C 86% 0.3 mph NNE0.5 kmh NNE 1.6 mph2.6 kmh 29.93 in1013.5 mb 0.00 in0.0 mm 0.00 in0.0 mm 0.00 in0.0 mm
10:50 PM 61.0°F16.1°C 57.1°F13.9°C 87% 1.0 mph NE1.6 kmh NE 2.2 mph3.5 kmh 29.94 in1013.9 mb 0.00 in0.0 mm 0.00 in0.0 mm 0.00 in0.0 mm
11:00 PM 60.8°F16.0°C 56.9°F13.8°C 87% 0.2 mph NE0.3 kmh NE 2.2 mph3.5 kmh 29.94 in1013.9 mb 0.00 in0.0 mm 0.00 in0.0 mm 0.00 in0.0 mm
11:10 PM 60.6°F15.9°C 56.7°F13.7°C 87% Calm Calm -- 29.93 in1013.5 mb 0.00 in0.0 mm 0.00 in0.0 mm 0.00 in0.0 mm
11:20 PM 60.3°F15.7°C 56.4°F13.6°C 87% Calm Calm -- 29.94 in1013.9 mb 0.00 in0.0 mm 0.00 in0.0 mm 0.00 in0.0 mm
11:30 PM 60.3°F15.7°C 56.4°F13.6°C 87% Calm Calm -- 29.93 in1013.5 mb 0.00 in0.0 mm 0.00 in0.0 mm 0.00 in0.0 mm
11:40 PM 60.3°F15.7°C 56.4°F13.6°C 87% 0.1 mph N0.2 kmh N 1.6 mph2.6 kmh 29.94 in1013.9 mb 0.00 in0.0 mm 0.00 in0.0 mm 0.00 in0.0 mm
11:50 PM 59.9°F15.5°C 55.7°F13.2°C 86% 0.1 mph NE0.2 kmh NE 0.7 mph1.1 kmh 29.94 in1013.9 mb 0.00 in0.0 mm 0.00 in0.0 mm 0.00 in0.0 mm